createdAt,value
2023-02-02T00:01:46.164Z,4.60
2023-02-02T00:04:30.104Z,5.00
2023-02-02T00:06:59.695Z,3.10
2023-02-02T00:09:31.446Z,2.90
2023-02-02T00:11:59.330Z,2.80
2023-02-02T00:14:26.750Z,2.40
2023-02-02T00:16:54.739Z,3.30
2023-02-02T00:19:23.164Z,2.30
2023-02-02T00:21:50.076Z,4.10
2023-02-02T00:24:20.610Z,3.70
2023-02-02T00:26:52.580Z,5.10
2023-02-02T00:29:25.992Z,3.10
2023-02-02T00:31:53.403Z,2.90
2023-02-02T00:34:20.807Z,3.70
2023-02-02T00:36:48.653Z,5.20
2023-02-02T00:39:18.655Z,6.20
2023-02-02T00:41:45.999Z,4.70
2023-02-02T00:44:35.239Z,2.70
2023-02-02T00:47:02.618Z,3.20
2023-02-02T00:49:29.592Z,3.10
2023-02-02T00:51:56.509Z,2.90
2023-02-02T00:54:23.282Z,2.80
2023-02-02T00:56:50.288Z,3.70
2023-02-02T00:59:17.133Z,4.10
2023-02-02T01:01:46.051Z,4.30
2023-02-02T01:04:13.436Z,3.10
2023-02-02T01:06:44.056Z,3.70
2023-02-02T01:09:10.909Z,4.20
2023-02-02T01:11:37.727Z,3.90
2023-02-02T01:14:05.064Z,3.80
2023-02-02T01:16:32.128Z,3.90
2023-02-02T01:18:59.175Z,3.00
2023-02-02T01:21:26.125Z,3.20
2023-02-02T01:23:54.465Z,3.10
2023-02-02T01:26:21.253Z,3.60
2023-02-02T01:28:48.089Z,3.50
2023-02-02T01:31:20.082Z,4.60
2023-02-02T01:33:47.780Z,3.40
2023-02-02T01:36:17.065Z,3.40
2023-02-02T01:38:44.832Z,3.60
2023-02-02T01:41:16.802Z,3.10
2023-02-02T01:43:44.057Z,2.90
2023-02-02T01:46:18.148Z,3.00
2023-02-02T01:49:02.915Z,3.10
2023-02-02T01:51:52.940Z,4.00
2023-02-02T01:54:25.377Z,5.40
2023-02-02T01:57:06.075Z,3.80
2023-02-02T01:59:33.065Z,2.80
2023-02-02T02:02:03.239Z,3.30
2023-02-02T02:04:31.773Z,3.40
2023-02-02T02:07:01.243Z,3.10
2023-02-02T02:09:28.772Z,3.40
2023-02-02T02:11:59.656Z,3.20
2023-02-02T02:14:45.471Z,3.40
2023-02-02T02:17:52.091Z,2.40
2023-02-02T02:21:15.457Z,2.50
2023-02-02T02:24:25.765Z,2.90
2023-02-02T02:27:04.494Z,3.80
2023-02-02T02:29:53.399Z,3.50
2023-02-02T02:32:48.945Z,3.90
2023-02-02T02:35:24.002Z,4.30
2023-02-02T02:40:53.992Z,4.60
2023-02-02T02:43:30.012Z,3.60
2023-02-02T02:45:57.288Z,3.20
2023-02-02T02:48:24.683Z,3.00
2023-02-02T02:50:52.113Z,4.10
2023-02-02T02:53:21.590Z,3.10
2023-02-02T02:55:48.837Z,2.30
2023-02-02T02:58:43.712Z,2.70
2023-02-02T03:01:17.932Z,3.10
2023-02-02T03:03:47.189Z,2.70
2023-02-02T03:06:29.131Z,3.00
2023-02-02T03:09:01.762Z,3.10
2023-02-02T03:11:28.653Z,3.60
2023-02-02T03:13:55.382Z,2.70
2023-02-02T03:16:22.519Z,2.70
2023-02-02T03:18:49.979Z,3.10
2023-02-02T03:21:16.940Z,3.30
2023-02-02T03:23:43.883Z,2.30
2023-02-02T03:26:10.979Z,2.60
2023-02-02T03:28:38.525Z,2.90
2023-02-02T03:31:06.097Z,3.60
2023-02-02T03:33:33.827Z,3.00
2023-02-02T03:36:00.985Z,3.10
2023-02-02T03:38:28.080Z,2.60
2023-02-02T03:40:55.482Z,3.00
2023-02-02T03:43:23.337Z,2.50
2023-02-02T03:46:01.073Z,3.00
2023-02-02T03:48:28.070Z,3.30
2023-02-02T03:50:55.643Z,2.70
2023-02-02T03:53:23.078Z,2.90
2023-02-02T05:58:37.789Z,3.40
2023-02-02T06:01:04.864Z,3.30
2023-02-02T06:03:31.914Z,3.40
2023-02-02T06:05:59.138Z,3.80
2023-02-02T06:08:26.022Z,2.50
2023-02-02T06:10:53.048Z,2.60
2023-02-02T06:13:19.951Z,3.20
2023-02-02T06:15:46.910Z,3.00
2023-02-02T06:18:13.870Z,3.30
2023-02-02T06:20:40.697Z,3.10
2023-02-02T06:23:07.735Z,2.90
2023-02-02T06:25:34.921Z,3.30
2023-02-02T06:28:01.862Z,2.80
2023-02-02T06:30:29.298Z,2.50
2023-02-02T06:32:56.263Z,2.50
2023-02-02T06:35:23.673Z,3.00
2023-02-02T06:37:51.500Z,3.90
2023-02-02T06:40:18.415Z,3.90
2023-02-02T06:42:45.444Z,4.00
2023-02-02T06:45:12.402Z,3.50
2023-02-02T06:47:39.560Z,3.30
2023-02-02T06:50:06.920Z,3.50
2023-02-02T06:52:34.257Z,3.40
2023-02-02T06:55:01.142Z,3.50
2023-02-02T06:57:28.331Z,3.00
2023-02-02T06:59:55.338Z,3.00
2023-02-02T07:02:23.521Z,3.60
2023-02-02T07:04:51.372Z,3.40
2023-02-02T07:07:18.490Z,3.50
2023-02-02T07:09:45.254Z,3.40
2023-02-02T07:12:12.134Z,3.50
2023-02-02T07:14:39.657Z,3.50
2023-02-02T07:17:06.723Z,3.60
2023-02-02T07:19:34.005Z,3.80
2023-02-02T07:22:01.230Z,3.80
2023-02-02T07:24:28.788Z,2.80
2023-02-02T07:26:55.945Z,2.90
2023-02-02T07:29:22.912Z,3.00
2023-02-02T07:31:49.788Z,3.40
2023-02-02T07:34:17.581Z,2.90
2023-02-02T07:36:44.910Z,3.70
2023-02-02T07:39:11.686Z,4.20
2023-02-02T07:41:39.129Z,3.40
2023-02-02T07:44:15.533Z,3.90
2023-02-02T07:46:47.091Z,3.60
2023-02-02T07:49:14.861Z,3.50
2023-02-02T07:51:46.350Z,3.60
2023-02-02T07:54:14.353Z,2.80
2023-02-02T07:56:41.096Z,2.90
2023-02-02T07:59:07.781Z,2.40
2023-02-02T08:01:34.920Z,2.90
2023-02-02T08:04:03.227Z,3.10
2023-02-02T08:06:32.214Z,3.10
2023-02-02T08:08:59.680Z,3.30
2023-02-02T08:11:28.378Z,3.20
2023-02-02T08:13:57.028Z,3.00
2023-02-02T08:16:27.254Z,3.30
2023-02-02T08:18:54.196Z,3.50
2023-02-02T08:21:21.060Z,3.20
2023-02-02T08:23:47.924Z,3.70
2023-02-02T08:26:19.338Z,3.50
2023-02-02T08:28:48.812Z,3.00
2023-02-02T08:31:17.751Z,4.10
2023-02-02T08:33:44.476Z,3.00
2023-02-02T08:36:15.153Z,2.30
2023-02-02T08:41:16.787Z,2.70
2023-02-02T08:43:43.656Z,2.70
2023-02-02T08:46:11.649Z,3.10
2023-02-02T08:48:40.314Z,2.60
2023-02-02T08:51:07.661Z,4.90
2023-02-02T08:53:36.486Z,3.60
2023-02-02T08:56:05.367Z,3.60
2023-02-02T08:58:33.746Z,3.90
2023-02-02T09:01:08.210Z,4.00
2023-02-02T09:03:35.206Z,3.30
2023-02-02T09:06:10.223Z,3.20
2023-02-02T09:08:37.161Z,3.00
2023-02-02T09:11:09.439Z,3.30
2023-02-02T09:13:36.686Z,3.10
2023-02-02T09:16:04.362Z,4.20
2023-02-02T09:18:31.178Z,3.50
2023-02-02T09:21:02.319Z,3.40
2023-02-02T09:23:33.074Z,3.30
2023-02-02T09:26:18.443Z,5.10
2023-02-02T09:28:47.266Z,6.10
2023-02-02T09:31:14.368Z,5.00
2023-02-02T09:33:41.767Z,3.50
2023-02-02T09:36:13.319Z,3.40
2023-02-02T09:38:40.249Z,12.30
2023-02-02T09:41:38.918Z,11.80
2023-02-02T09:44:17.328Z,5.10
2023-02-02T09:46:56.426Z,10.50
2023-02-02T09:49:27.157Z,5.40
2023-02-02T09:51:57.013Z,3.20
2023-02-02T09:54:34.807Z,4.60
2023-02-02T09:57:02.640Z,3.20
2023-02-02T09:59:32.957Z,2.80
2023-02-02T10:02:03.661Z,2.60
2023-02-02T10:04:38.277Z,3.10
2023-02-02T10:07:12.097Z,3.40
2023-02-02T10:09:55.897Z,2.70
2023-02-02T10:12:43.785Z,2.90
2023-02-02T10:15:42.341Z,2.90
2023-02-02T10:18:18.907Z,3.70
2023-02-02T10:20:54.260Z,3.30
2023-02-02T10:23:28.106Z,2.20
2023-02-02T10:25:56.350Z,3.80
2023-02-02T10:28:30.325Z,2.90
2023-02-02T10:31:00.858Z,3.00
2023-02-02T10:33:38.179Z,3.20
2023-02-02T10:36:11.514Z,2.80
2023-02-02T10:38:53.167Z,2.50
2023-02-02T10:41:38.198Z,3.10
2023-02-02T10:44:17.037Z,2.60
2023-02-02T10:46:46.832Z,2.80
2023-02-02T10:49:31.099Z,3.70
2023-02-02T10:52:11.189Z,3.10
2023-02-02T10:54:57.732Z,3.20
2023-02-02T10:57:43.176Z,3.10
2023-02-02T11:00:31.122Z,2.50
2023-02-02T11:02:58.991Z,4.30
2023-02-02T11:05:46.472Z,3.00
2023-02-02T11:08:21.118Z,3.70
2023-02-02T11:10:50.300Z,4.50
2023-02-02T11:15:51.403Z,3.80
2023-02-02T11:18:28.633Z,3.30
2023-02-02T11:20:55.792Z,3.00
2023-02-02T11:23:23.434Z,3.80
2023-02-02T11:26:01.301Z,3.80
2023-02-02T11:28:30.332Z,3.30
2023-02-02T11:30:57.166Z,3.10
2023-02-02T11:33:34.846Z,4.60
2023-02-02T11:36:03.836Z,4.50
2023-02-02T11:38:30.894Z,5.30
2023-02-02T11:41:01.078Z,4.10
2023-02-02T11:43:36.252Z,3.60
2023-02-02T11:46:08.056Z,3.70
2023-02-02T11:48:37.844Z,3.80
2023-02-02T11:51:05.366Z,5.00
2023-02-02T11:53:48.070Z,4.80
2023-02-02T11:56:27.746Z,4.60
2023-02-02T11:59:03.976Z,4.20
2023-02-02T12:01:41.345Z,5.90
2023-02-02T12:04:17.578Z,5.20
2023-02-02T12:06:44.376Z,3.60
2023-02-02T12:09:13.457Z,3.20
2023-02-02T12:12:02.372Z,3.60
2023-02-02T12:17:15.487Z,4.40
2023-02-02T12:19:52.028Z,6.00
2023-02-02T12:22:40.172Z,6.10
2023-02-02T12:25:24.208Z,6.30
2023-02-02T12:27:59.490Z,4.90
2023-02-02T12:30:30.775Z,4.30
2023-02-02T12:33:20.415Z,5.00
2023-02-02T12:36:01.560Z,3.70
2023-02-02T12:38:36.714Z,4.10
2023-02-02T12:41:27.052Z,4.40
2023-02-02T12:44:06.642Z,5.50
2023-02-02T12:46:40.866Z,6.70
2023-02-02T12:49:36.113Z,5.00
2023-02-02T12:52:17.096Z,4.20
2023-02-02T12:55:15.325Z,4.50
2023-02-02T12:58:26.588Z,4.60
2023-02-02T13:01:18.643Z,4.50
2023-02-02T13:03:59.556Z,4.80
2023-02-02T13:06:48.123Z,4.70
2023-02-02T13:09:23.484Z,5.00
2023-02-02T13:11:55.065Z,4.30
2023-02-02T13:14:31.471Z,4.60
2023-02-02T13:17:11.695Z,5.60
2023-02-02T13:19:41.194Z,5.30
2023-02-02T13:22:12.519Z,4.90
2023-02-02T13:24:39.489Z,4.30
2023-02-02T13:27:06.529Z,4.20
2023-02-02T13:29:44.500Z,4.60
2023-02-02T13:32:33.844Z,4.30
2023-02-02T13:35:25.884Z,5.60
2023-02-02T13:38:05.019Z,4.50
2023-02-02T13:40:34.656Z,4.40
2023-02-02T13:43:39.820Z,4.50
2023-02-02T13:46:16.018Z,4.30
2023-02-02T13:49:13.396Z,4.70
2023-02-02T13:51:59.430Z,4.60
2023-02-02T13:57:01.443Z,6.20
2023-02-02T13:59:40.296Z,6.10
2023-02-02T14:02:26.003Z,5.50
2023-02-02T14:04:57.093Z,5.60
2023-02-02T14:07:41.476Z,6.10
2023-02-02T14:10:24.414Z,5.70
2023-02-02T14:12:52.062Z,5.20
2023-02-02T14:15:18.992Z,5.30
2023-02-02T14:17:47.200Z,5.30
2023-02-02T14:20:46.548Z,4.20
2023-02-02T14:23:51.441Z,4.30
2023-02-02T14:26:20.429Z,6.20
2023-02-02T14:28:51.331Z,5.50
2023-02-02T14:31:31.643Z,4.60
2023-02-02T14:34:27.220Z,4.20
2023-02-02T14:36:59.814Z,5.10
2023-02-02T14:39:26.734Z,4.20
2023-02-02T14:42:45.081Z,5.90
2023-02-02T14:45:11.692Z,4.10
2023-02-02T14:47:45.274Z,4.20
2023-02-02T14:50:32.331Z,5.00
2023-02-02T14:53:02.077Z,4.20
2023-02-02T14:55:29.342Z,5.70
2023-02-02T14:58:01.011Z,6.10
2023-02-02T15:00:30.567Z,5.10
2023-02-02T15:02:57.419Z,7.10
2023-02-02T15:05:32.159Z,6.30
2023-02-02T15:08:14.231Z,7.60
2023-02-02T15:10:48.239Z,11.80
2023-02-02T15:13:16.057Z,6.00
2023-02-02T15:15:44.033Z,5.50
2023-02-02T15:18:16.947Z,7.30
2023-02-02T15:20:48.799Z,6.10
2023-02-02T15:23:23.806Z,5.80
2023-02-02T15:25:59.870Z,6.70
2023-02-02T15:28:46.162Z,9.50
2023-02-02T15:31:30.331Z,8.00
2023-02-02T15:34:03.374Z,10.00
2023-02-02T15:36:35.091Z,7.20
2023-02-02T15:39:23.691Z,22.00
2023-02-02T15:42:10.539Z,13.10
2023-02-02T15:44:39.381Z,13.90
2023-02-02T15:47:09.124Z,8.10
2023-02-02T15:49:36.439Z,9.50
2023-02-02T15:52:22.910Z,7.00
2023-02-02T15:54:54.651Z,5.70
2023-02-02T15:57:31.807Z,5.10
2023-02-02T15:59:59.114Z,5.40
2023-02-02T16:02:39.605Z,7.10
2023-02-02T16:05:43.235Z,10.60
2023-02-02T16:08:23.828Z,10.00
2023-02-02T16:10:50.648Z,14.50
2023-02-02T16:13:22.739Z,11.20
2023-02-02T16:16:03.687Z,7.60
2023-02-02T16:18:32.711Z,8.70
2023-02-02T16:21:01.258Z,12.20
2023-02-02T16:23:30.679Z,12.80
2023-02-02T16:28:25.455Z,6.90
2023-02-02T16:30:52.553Z,10.80
2023-02-02T16:33:39.112Z,11.50
2023-02-02T16:36:24.399Z,7.50
2023-02-02T16:38:57.619Z,10.00
2023-02-02T16:41:28.938Z,7.50
2023-02-02T16:43:55.967Z,6.00
2023-02-02T16:46:44.068Z,4.30
2023-02-02T16:49:19.170Z,4.40
2023-02-02T16:51:47.948Z,4.40
2023-02-02T16:54:19.867Z,5.80
2023-02-02T16:56:51.407Z,5.20
2023-02-02T16:59:25.965Z,6.30
2023-02-02T17:01:55.322Z,8.30
2023-02-02T17:04:25.990Z,9.90
2023-02-02T17:06:53.688Z,10.10
2023-02-02T17:09:35.558Z,7.80
2023-02-02T17:12:32.721Z,10.30
2023-02-02T17:15:06.104Z,6.00
2023-02-02T17:17:34.549Z,6.10
2023-02-02T17:20:01.413Z,6.20
2023-02-02T17:22:28.369Z,5.90
2023-02-02T17:24:55.174Z,4.80
2023-02-02T17:27:27.496Z,4.90
2023-02-02T17:29:54.677Z,3.70
2023-02-02T17:32:21.460Z,3.70
2023-02-02T17:34:48.323Z,5.30
2023-02-02T17:37:15.806Z,6.20
2023-02-02T17:39:42.618Z,4.30
2023-02-02T17:42:23.271Z,5.00
2023-02-02T17:44:50.098Z,4.50
2023-02-02T17:47:16.794Z,4.60
2023-02-02T17:49:43.865Z,4.70
2023-02-02T17:52:10.919Z,5.30
2023-02-02T17:54:37.573Z,7.40
2023-02-02T17:57:05.459Z,5.50
2023-02-02T17:59:32.415Z,5.10
2023-02-02T18:01:59.384Z,5.00
2023-02-02T18:04:27.200Z,5.50
2023-02-02T18:06:54.343Z,6.10
2023-02-02T18:09:21.026Z,5.80
2023-02-02T18:11:49.998Z,4.70
2023-02-02T18:14:17.111Z,4.60
2023-02-02T18:16:44.512Z,4.30
2023-02-02T18:19:11.563Z,4.90
2023-02-02T18:21:38.496Z,4.00
2023-02-02T18:24:05.874Z,4.20
2023-02-02T18:26:34.975Z,4.60
2023-02-02T18:29:02.317Z,4.90
2023-02-02T18:31:29.415Z,4.60
2023-02-02T18:33:56.507Z,5.10
2023-02-02T18:36:23.960Z,5.60
2023-02-02T18:38:51.652Z,5.60
2023-02-02T18:41:18.959Z,4.70
2023-02-02T18:43:46.249Z,5.00
2023-02-02T18:46:14.087Z,5.00
2023-02-02T18:48:42.122Z,6.20
2023-02-02T18:51:13.541Z,5.80
2023-02-02T18:53:40.272Z,7.20
2023-02-02T18:56:07.848Z,5.60
2023-02-02T18:58:35.473Z,5.70
2023-02-02T19:01:09.249Z,5.20
2023-02-02T19:03:36.970Z,4.80
2023-02-02T19:06:23.045Z,5.90
2023-02-02T19:08:49.962Z,5.80
2023-02-02T19:11:21.336Z,5.50
2023-02-02T19:13:49.253Z,5.60
2023-02-02T19:16:26.378Z,5.60
2023-02-02T19:18:56.174Z,6.50
2023-02-02T19:21:23.261Z,5.60
2023-02-02T19:23:50.253Z,6.10
2023-02-02T19:26:18.884Z,4.90
2023-02-02T19:28:45.844Z,5.90
2023-02-02T19:31:13.989Z,5.60
2023-02-02T19:33:44.095Z,5.30
2023-02-02T19:36:18.535Z,5.50
2023-02-02T19:38:45.905Z,5.30
2023-02-02T19:41:16.046Z,4.70
2023-02-02T19:43:47.995Z,4.40
2023-02-02T19:46:22.243Z,4.30
2023-02-02T19:48:51.939Z,4.60
2023-02-02T19:51:37.191Z,4.80
2023-02-02T19:54:04.723Z,5.40
2023-02-02T19:56:36.263Z,4.20
2023-02-02T19:59:03.082Z,4.70
2023-02-02T20:01:30.210Z,4.90
2023-02-02T20:03:58.723Z,4.60
2023-02-02T20:06:26.863Z,5.00
2023-02-02T20:08:54.227Z,5.10
2023-02-02T20:11:39.923Z,4.70
2023-02-02T20:14:18.521Z,5.20
2023-02-02T20:16:47.847Z,5.60
2023-02-02T20:19:16.839Z,5.40
2023-02-02T20:21:45.967Z,5.20
2023-02-02T20:24:44.443Z,5.40
2023-02-02T20:27:17.419Z,4.40
2023-02-02T20:29:46.734Z,4.40
2023-02-02T20:32:22.772Z,4.80
2023-02-02T20:34:50.120Z,5.00
2023-02-02T20:37:31.222Z,5.30
2023-02-02T20:40:01.143Z,4.80
2023-02-02T20:42:28.489Z,4.80
2023-02-02T20:44:55.696Z,4.70
2023-02-02T20:47:22.917Z,5.20
2023-02-02T20:49:49.755Z,6.00
2023-02-02T20:52:24.264Z,4.90
2023-02-02T20:54:51.764Z,4.90
2023-02-02T20:57:19.897Z,5.20
2023-02-02T20:59:46.998Z,5.50
2023-02-02T21:02:22.671Z,4.70
2023-02-02T21:04:49.897Z,5.10
2023-02-02T21:07:17.523Z,5.00
2023-02-02T21:09:45.369Z,5.60
2023-02-02T21:12:12.329Z,4.50
2023-02-02T21:14:39.821Z,4.20
2023-02-02T21:17:14.853Z,5.20
2023-02-02T21:19:42.456Z,5.20
2023-02-02T21:22:09.236Z,5.10
2023-02-02T21:24:36.374Z,5.30
2023-02-02T21:27:05.203Z,5.00
2023-02-02T21:29:32.857Z,5.40
2023-02-02T21:32:02.653Z,5.70
2023-02-02T21:34:30.463Z,5.60
2023-02-02T21:36:58.246Z,5.40
2023-02-02T21:39:33.087Z,5.50
2023-02-02T21:42:09.534Z,5.00
2023-02-02T21:44:43.090Z,6.50
2023-02-02T21:47:34.030Z,5.50
2023-02-02T21:50:15.591Z,5.40
2023-02-02T21:52:42.777Z,4.90
2023-02-02T21:55:19.112Z,5.40
2023-02-02T21:57:46.822Z,4.50
2023-02-02T22:00:25.623Z,4.40
2023-02-02T22:02:54.033Z,4.40
2023-02-02T22:05:29.188Z,4.90
2023-02-02T22:07:58.920Z,4.60
2023-02-02T22:10:38.572Z,4.50
2023-02-02T22:13:18.484Z,5.00
2023-02-02T22:15:52.014Z,5.40
2023-02-02T22:18:21.793Z,5.60
2023-02-02T22:20:50.718Z,5.60
2023-02-02T22:23:19.719Z,5.50
2023-02-02T22:25:48.095Z,5.70
2023-02-02T22:28:20.794Z,5.40
2023-02-02T22:30:48.177Z,5.30
2023-02-02T22:33:14.982Z,5.20
2023-02-02T22:35:43.671Z,5.80
2023-02-02T22:38:18.454Z,5.00
2023-02-02T22:40:46.070Z,5.40
2023-02-02T22:43:14.888Z,3.80
2023-02-02T22:45:42.976Z,4.10
2023-02-02T22:48:09.706Z,4.50
2023-02-02T22:50:36.770Z,5.30
2023-02-02T22:53:03.822Z,5.00
2023-02-02T22:55:30.929Z,4.40
2023-02-02T22:57:57.856Z,5.10
2023-02-02T23:00:29.144Z,4.80
2023-02-02T23:02:56.380Z,5.40
2023-02-02T23:05:23.848Z,5.50
2023-02-02T23:07:50.824Z,5.20
2023-02-02T23:10:19.153Z,5.60
2023-02-02T23:12:46.163Z,5.60
2023-02-02T23:15:13.597Z,5.80
2023-02-02T23:17:40.790Z,5.70
2023-02-02T23:20:09.809Z,5.40
2023-02-02T23:22:36.700Z,4.60
2023-02-02T23:25:03.634Z,5.60
2023-02-02T23:27:30.506Z,4.40
2023-02-02T23:29:58.103Z,4.00
2023-02-02T23:32:25.059Z,4.10
2023-02-02T23:34:51.904Z,4.60
2023-02-02T23:37:18.760Z,4.40
2023-02-02T23:39:45.551Z,5.10
2023-02-02T23:42:12.598Z,5.20
2023-02-02T23:44:40.040Z,5.00
2023-02-02T23:47:07.048Z,4.90
2023-02-02T23:49:34.302Z,4.90
2023-02-02T23:52:01.040Z,5.10
2023-02-02T23:54:27.973Z,5.20
2023-02-02T23:56:55.297Z,5.50
2023-02-02T23:59:22.417Z,5.10
